Lowestoft, United Kingdom
Current Conditions -  °F | °C
As of 6:20 PM on Friday 19 Dec 2014 (Local Time) from EGSD Reporting Station
Few Clouds Few Clouds  
Wind Chill: 38°   Ceiling: Unl
Heat Index: 45°   Visibility: 6mi
Dew Point: 39°   Wind: 15mph
Humidity: 81%   Direction: 250°WSW
Pressure: 30"   Gusts: NA
Location:  52.47°N, 1.75°E
Report Text: EGSD 191820Z 25013KT 9999 FEW040 07/04 Q1016
Loading
Personal Weather Stations






























Interactive Weather Map New forecast layout! Learn more

10-Day Weather Forecast

Advertisements
Track Severe Weather on mobile